Accueil
METAR-TAF:

METAR-TAF

Aéroports :

Aéroport international de Coni

Coni, Italie

latitude: 44-32-47N, longitude: 007-37-20E, altitude: 386 m

Observation

Le bulletin a été fait il y a 6 heures et 31 minutes, à 18:50 UTC
Vent 3 kt de nord
Température 17°C
Humidité 68%
Pression 1017 hPa
Visibilité 10 km ou plus
Nuages épars à une hauteur de 3000 ft

METAR: LIMZ 201850Z 35003KT 9999 SCT030 17/11 Q1017

Heure: 03:21 (01:21 UTC)

Prévision

Le bulletin a été fait il y a 8 heures et 21 minutes, à 17:00 UTC
Prévision valable du 20 à 18 UTC au 21 à 18 UTC
Vent 5 kt de direction variable
Visibilité 10 km ou plus
Nuages fragmentés à une hauteur de 5000 ft
Temporairement
du 20 à 18 UTC au 21 à 06 UTC
Visibilité: 4000 m
orage, pluie

TAF: LIMZ 201700Z 2018/2118 VRB05KT 9999 BKN050 TEMPO 2018/2106 4000 TSRA

Observations et prévisions météorologiques de plus de 4000 aéroports (messages METAR et TAF).

Les stations disponibles sont représentées par des disques jaunes et rouges sur la carte.

Passer la souris dessus pour voir le nom de la station.

Cliquer dessus pour voir les observations et prévisions météorologiques.

Pour changer de carte: cliquez sur les boutons verts avec une croix noire pour zoomer, sur le bouton vert avec un tiret pour effectuer un zoom arrière, ou sur les flèches vertes pour les cartes adjacentes.


METAR-TAF: